Terminal Aerodrome Forecast
Issued by NWS

Home | Current Version | Previous Version | Text Only | Print | Product List | Glossary On
Versions: 1 2 3 4 5 6 7 8 9 10 11 12 13 14 15 16
888
FTUS46 KSGX 190520
TAFCRQ
TAF
KCRQ 190520Z 1906/2006 14006KT P6SM VCSH SCT018 SCT025 BKN100
      TEMPO 1908/1912 -SHRA BKN020
     FM191200 16010G20KT 4SM RA BR SCT008 OVC010
     FM192000 22013KT P6SM -SHRA SCT015 BKN025
     FM200200 23007KT P6SM VCSH BKN025=

USA.gov is the U.S. government's official web portal to all federal, state and local government web resources and services.